Terminal Aerodrome Forecast
Issued by NWS

Home | Current Version | Previous Version | Graphics & Text | Print | Product List | Glossary On
Versions: 1 2 3 4 5 6 7 8 9 10 11 12 13 14 15 16 17 18 19
000
FTUS43 KPAH 200005 CCA
TAFOWB
TAF COR
KOWB 200005Z 2000/2024 VRB03KT 6SM BR SCT008
     FM200300 VRB03KT 2SM BR BKN005
     FM200800 VRB03KT 3/4SM BR BKN003
     FM201500 14006KT P6SM BKN010
     FM201700 16007KT P6SM SCT250=

USA.gov is the U.S. government's official web portal to all federal, state and local government web resources and services.